createdAt,value
2022-08-17T00:02:26.852Z,99735.63
2022-08-17T00:05:33.257Z,99735.94
2022-08-17T00:08:38.535Z,99738.06
2022-08-17T00:12:40.666Z,99731.31
2022-08-17T00:15:10.336Z,99734.16
2022-08-17T00:19:06.541Z,99737.62
2022-08-17T00:22:33.121Z,99743.25
2022-08-17T00:25:07.432Z,99741.63
2022-08-17T00:28:11.074Z,99741.72
2022-08-17T00:31:14.422Z,99733.41
2022-08-17T00:34:17.380Z,99736.50
2022-08-17T00:37:20.141Z,99736.56
2022-08-17T00:40:24.819Z,99732.72
2022-08-17T00:43:29.857Z,99737.66
2022-08-17T00:46:36.441Z,99733.69
2022-08-17T00:49:39.559Z,99731.97
2022-08-17T00:52:52.047Z,99724.66
2022-08-17T00:55:55.827Z,99730.41
2022-08-17T00:58:58.744Z,99740.06
2022-08-17T01:02:03.178Z,99745.97
2022-08-17T01:05:07.386Z,99748.66
2022-08-17T01:08:13.562Z,99756.53
2022-08-17T01:11:17.219Z,99754.91
2022-08-17T01:14:25.419Z,99754.03
2022-08-17T01:17:28.580Z,99760.97
2022-08-17T01:20:48.113Z,99761.41
2022-08-17T01:23:51.253Z,99762.22
2022-08-17T01:26:54.093Z,99761.19
2022-08-17T01:30:05.131Z,99762.03
2022-08-17T01:33:28.677Z,99765.66
2022-08-17T01:36:31.208Z,99768.00
2022-08-17T01:39:43.566Z,99762.78
2022-08-17T01:42:56.088Z,99769.19
2022-08-17T01:46:02.524Z,99761.75
2022-08-17T01:49:09.868Z,99764.37
2022-08-17T01:52:13.361Z,99760.44
2022-08-17T01:55:17.765Z,99756.69
2022-08-17T01:58:21.541Z,99770.63
2022-08-17T02:01:27.586Z,99767.03
2022-08-17T02:04:30.626Z,99765.41
2022-08-17T02:07:48.017Z,99760.84
2022-08-17T02:11:00.377Z,99765.41
2022-08-17T02:14:05.427Z,99765.13
2022-08-17T02:17:08.242Z,99769.88
2022-08-17T02:20:10.882Z,99757.56
2022-08-17T02:23:14.455Z,99759.56
2022-08-17T02:26:25.870Z,99754.09
2022-08-17T02:29:29.593Z,99758.44
2022-08-17T02:32:32.222Z,99762.56
2022-08-17T02:35:37.165Z,99756.38
2022-08-17T02:38:40.672Z,99765.16
2022-08-17T02:41:44.974Z,99761.50
2022-08-17T02:44:47.988Z,99753.28
2022-08-17T02:47:52.089Z,99753.50
2022-08-17T02:50:55.379Z,99750.72
2022-08-17T02:54:02.205Z,99761.44
2022-08-17T02:57:20.815Z,99762.63
2022-08-17T03:00:34.065Z,99770.00
2022-08-17T03:03:38.302Z,99773.88
2022-08-17T03:06:41.171Z,99767.28
2022-08-17T03:09:43.738Z,99762.47
2022-08-17T03:12:47.147Z,99758.66
2022-08-17T03:15:50.661Z,99766.34
2022-08-17T03:18:54.755Z,99765.50
2022-08-17T03:21:58.772Z,99769.16
2022-08-17T03:25:01.852Z,99772.81
2022-08-17T03:28:05.794Z,99772.31
2022-08-17T03:31:08.772Z,99774.34
2022-08-17T03:34:11.292Z,99789.06
2022-08-17T03:37:14.762Z,99780.41
2022-08-17T03:40:55.389Z,99795.91
2022-08-17T03:43:43.220Z,99793.53
2022-08-17T03:47:04.202Z,99793.03
2022-08-17T03:50:27.790Z,99793.41
2022-08-17T03:53:48.716Z,99794.84
2022-08-17T03:57:03.554Z,99793.69
2022-08-17T04:00:08.143Z,99801.44
2022-08-17T04:03:14.800Z,99801.16
2022-08-17T04:06:17.659Z,99809.00
2022-08-17T04:09:20.234Z,99811.75
2022-08-17T04:12:24.268Z,99800.38
2022-08-17T04:15:27.441Z,99809.28
2022-08-17T04:18:30.369Z,99809.87
2022-08-17T04:21:35.027Z,99810.19
2022-08-17T04:24:37.836Z,99812.63
2022-08-17T04:27:40.331Z,99816.13
2022-08-17T04:30:45.137Z,99822.78
2022-08-17T04:33:47.608Z,99819.59
2022-08-17T04:36:50.663Z,99820.53
2022-08-17T04:40:13.280Z,99821.66
2022-08-17T04:43:18.602Z,99826.56
2022-08-17T04:46:24.440Z,99829.00
2022-08-17T04:49:27.263Z,99835.50
2022-08-17T04:52:43.078Z,99828.47
2022-08-17T04:55:46.492Z,99827.44
2022-08-17T04:58:50.989Z,99828.25
2022-08-17T05:01:54.663Z,99836.28
2022-08-17T05:04:57.130Z,99836.78
2022-08-17T05:08:04.547Z,99836.13
2022-08-17T05:11:08.226Z,99835.47
2022-08-17T05:14:11.233Z,99849.09
2022-08-17T05:17:13.761Z,99847.09
2022-08-17T05:20:17.532Z,99844.81
2022-08-17T05:23:22.287Z,99850.91
2022-08-17T05:26:27.463Z,99847.63
2022-08-17T05:29:35.185Z,99852.22
2022-08-17T05:32:51.069Z,99852.22
2022-08-17T05:35:56.698Z,99847.03
2022-08-17T05:38:59.525Z,99846.63
2022-08-17T05:42:02.619Z,99837.41
2022-08-17T05:45:05.871Z,99845.16
2022-08-17T05:48:10.253Z,99843.00
2022-08-17T05:51:48.525Z,99839.34
2022-08-17T05:54:59.906Z,99847.91
2022-08-17T05:58:08.714Z,99852.50
2022-08-17T06:01:33.539Z,99853.97
2022-08-17T06:05:10.805Z,99856.00
2022-08-17T06:08:43.972Z,99854.81
2022-08-17T06:12:00.363Z,99860.28
2022-08-17T06:15:44.024Z,99857.72
2022-08-17T06:18:59.915Z,99859.41
2022-08-17T06:22:03.492Z,99868.50
2022-08-17T06:25:12.555Z,99872.69
2022-08-17T06:28:25.515Z,99875.16
2022-08-17T06:31:46.570Z,99867.03
2022-08-17T06:34:49.293Z,99873.34
2022-08-17T06:38:38.897Z,99872.78
2022-08-17T06:41:51.257Z,99873.41
2022-08-17T06:45:10.121Z,99874.53
2022-08-17T06:48:18.837Z,99869.91
2022-08-17T06:51:28.037Z,99871.78
2022-08-17T06:54:50.794Z,99863.87
2022-08-17T06:57:59.035Z,99873.84
2022-08-17T07:01:10.717Z,99867.53
2022-08-17T07:04:19.208Z,99861.31
2022-08-17T07:07:40.510Z,99869.03
2022-08-17T07:10:56.680Z,99873.44
2022-08-17T07:14:36.614Z,99868.75
2022-08-17T07:17:47.720Z,99873.63
2022-08-17T07:20:55.898Z,99876.19
2022-08-17T07:24:29.961Z,99880.41
2022-08-17T07:27:39.240Z,99877.44
2022-08-17T07:30:53.682Z,99874.91
2022-08-17T07:34:11.012Z,99875.62
2022-08-17T07:37:19.514Z,99877.44
2022-08-17T07:40:33.662Z,99879.22
2022-08-17T07:43:39.440Z,99873.72
2022-08-17T07:47:12.407Z,99865.81
2022-08-17T07:50:27.277Z,99880.03
2022-08-17T07:53:32.089Z,99871.09
2022-08-17T07:56:54.155Z,99876.06
2022-08-17T07:59:59.950Z,99877.19
2022-08-17T08:03:27.152Z,99870.91
2022-08-17T08:06:37.911Z,99877.56
2022-08-17T08:10:00.696Z,99882.16
2022-08-17T08:13:09.148Z,99882.56
2022-08-17T08:16:29.557Z,99873.88
2022-08-17T08:19:33.485Z,99874.62
2022-08-17T08:22:57.359Z,99886.34
2022-08-17T08:26:28.073Z,99870.31
2022-08-17T08:29:47.986Z,99869.50
2022-08-17T08:32:59.894Z,99873.44
2022-08-17T08:37:13.020Z,99875.19
2022-08-17T08:40:08.469Z,99881.94
2022-08-17T08:43:17.306Z,99869.72
2022-08-17T08:46:30.789Z,99870.13
2022-08-17T08:50:02.849Z,99871.66
2022-08-17T08:53:21.875Z,99869.50
2022-08-17T08:57:11.873Z,99862.78
2022-08-17T09:00:19.109Z,99860.38
2022-08-17T09:03:52.737Z,99859.50
2022-08-17T09:07:28.156Z,99856.94
2022-08-17T09:10:53.065Z,99846.00
2022-08-17T09:14:21.484Z,99843.00
2022-08-17T09:17:36.929Z,99847.87
2022-08-17T09:20:51.955Z,99848.53
2022-08-17T09:24:02.338Z,99843.59
2022-08-17T09:27:14.193Z,99850.13
2022-08-17T09:30:24.993Z,99854.66
2022-08-17T09:33:29.832Z,99855.00
2022-08-17T09:36:43.764Z,99846.34
2022-08-17T09:39:55.275Z,99843.94
2022-08-17T09:43:19.681Z,99843.16
2022-08-17T09:46:41.073Z,99836.62
2022-08-17T09:49:56.805Z,99840.66
2022-08-17T09:52:59.795Z,99833.06
2022-08-17T09:56:33.327Z,99830.41
2022-08-17T09:59:39.233Z,99825.16
2022-08-17T10:03:16.182Z,99821.69
2022-08-17T10:06:24.483Z,99826.72
2022-08-17T10:09:39.043Z,99825.28
2022-08-17T10:13:14.293Z,99826.53
2022-08-17T10:16:47.365Z,99824.84
2022-08-17T10:20:09.547Z,99826.81
2022-08-17T10:23:51.353Z,99825.84
2022-08-17T10:26:58.393Z,99822.62
2022-08-17T10:30:04.781Z,99819.97
2022-08-17T10:33:17.630Z,99813.41
2022-08-17T10:36:28.365Z,99806.47
2022-08-17T10:39:57.432Z,99805.84
2022-08-17T10:43:26.321Z,99809.53
2022-08-17T10:46:44.987Z,99807.84
2022-08-17T10:49:53.869Z,99812.53
2022-08-17T10:52:57.163Z,99817.22
2022-08-17T10:56:19.299Z,99827.41
2022-08-17T10:59:37.262Z,99818.81
2022-08-17T11:02:47.898Z,99812.47
2022-08-17T11:06:22.606Z,99812.09
2022-08-17T11:09:44.258Z,99805.09
2022-08-17T11:13:21.856Z,99808.44
2022-08-17T11:16:45.649Z,99808.00
2022-08-17T11:20:30.282Z,99808.88
2022-08-17T11:23:45.017Z,99805.47
2022-08-17T11:26:59.810Z,99800.12
2022-08-17T11:30:15.394Z,99796.84
2022-08-17T11:33:29.917Z,99792.16
2022-08-17T11:36:51.827Z,99790.75
2022-08-17T11:40:15.005Z,99787.28
2022-08-17T11:43:17.459Z,99775.50
2022-08-17T11:46:51.771Z,99784.75
2022-08-17T11:50:38.260Z,99780.03
2022-08-17T11:53:41.164Z,99785.88
2022-08-17T11:56:50.614Z,99774.00
2022-08-17T11:59:54.813Z,99772.03
2022-08-17T12:03:22.561Z,99765.34
2022-08-17T12:06:30.420Z,99759.13
2022-08-17T12:09:39.656Z,99758.88
2022-08-17T12:12:44.166Z,99764.75
2022-08-17T12:15:50.768Z,99751.16
2022-08-17T12:18:58.546Z,99756.16
2022-08-17T12:22:46.730Z,99740.97
2022-08-17T12:26:00.359Z,99746.28
2022-08-17T12:29:09.416Z,99730.34
2022-08-17T12:32:22.250Z,99749.37
2022-08-17T12:35:33.176Z,99736.94
2022-08-17T12:38:38.167Z,99733.78
2022-08-17T12:41:43.332Z,99727.41
2022-08-17T12:44:50.054Z,99734.53
2022-08-17T12:48:08.567Z,99726.03
2022-08-17T12:51:12.728Z,99729.41
2022-08-17T12:54:27.840Z,99732.06
2022-08-17T12:57:39.171Z,99725.16
2022-08-17T13:00:49.465Z,99734.53
2022-08-17T13:03:57.201Z,99724.94
2022-08-17T13:07:00.216Z,99719.22
2022-08-17T13:10:04.351Z,99721.13
2022-08-17T13:13:26.959Z,99719.00
2022-08-17T13:16:33.387Z,99713.91
2022-08-17T13:19:41.129Z,99713.53
2022-08-17T13:22:55.955Z,99720.72
2022-08-17T13:26:06.462Z,99716.94
2022-08-17T13:29:29.038Z,99728.00
2022-08-17T13:32:46.121Z,99717.81
2022-08-17T13:36:06.387Z,99715.44
2022-08-17T13:39:18.927Z,99711.87
2022-08-17T13:42:51.728Z,99701.88
2022-08-17T13:46:08.637Z,99709.97
2022-08-17T13:49:12.109Z,99705.88
2022-08-17T13:52:35.623Z,99704.16
2022-08-17T13:55:51.901Z,99696.66
2022-08-17T13:59:00.496Z,99698.00
2022-08-17T14:02:05.206Z,99704.06
2022-08-17T14:05:08.397Z,99698.69
2022-08-17T14:08:15.459Z,99699.62
2022-08-17T14:11:18.647Z,99698.09
2022-08-17T14:14:23.191Z,99701.63
2022-08-17T14:17:28.937Z,99701.06
2022-08-17T14:20:32.222Z,99687.78
2022-08-17T14:23:36.005Z,99693.28
2022-08-17T14:26:38.556Z,99683.38
2022-08-17T14:29:41.686Z,99686.19
2022-08-17T14:32:45.181Z,99685.62
2022-08-17T14:35:50.292Z,99682.72
2022-08-17T14:38:53.165Z,99676.03
2022-08-17T14:41:56.265Z,99681.34
2022-08-17T14:44:59.525Z,99680.78
2022-08-17T14:48:05.740Z,99681.59
2022-08-17T14:51:09.026Z,99690.94
2022-08-17T14:54:32.993Z,99680.00
2022-08-17T14:57:35.686Z,99684.81
2022-08-17T15:00:43.595Z,99684.03
2022-08-17T15:03:46.189Z,99681.81
2022-08-17T15:06:49.098Z,99688.34
2022-08-17T15:09:52.016Z,99686.06
2022-08-17T15:12:55.491Z,99678.12
2022-08-17T15:16:02.529Z,99679.22
2022-08-17T15:19:07.254Z,99670.41
2022-08-17T15:22:23.844Z,99674.06
2022-08-17T15:25:29.499Z,99676.38
2022-08-17T15:28:32.474Z,99677.56
2022-08-17T15:31:35.360Z,99676.94
2022-08-17T15:34:38.188Z,99681.87
2022-08-17T15:37:41.061Z,99684.03
2022-08-17T15:40:47.659Z,99677.59
2022-08-17T15:43:51.821Z,99674.31
2022-08-17T15:46:55.952Z,99669.88
2022-08-17T15:50:06.801Z,99680.28
2022-08-17T15:53:10.285Z,99679.09
2022-08-17T15:56:16.478Z,99680.09
2022-08-17T15:59:19.383Z,99687.38
2022-08-17T16:03:13.485Z,99680.75
2022-08-17T16:05:50.202Z,99676.38
2022-08-17T16:08:54.573Z,99682.88
2022-08-17T16:11:57.374Z,99674.47
2022-08-17T16:15:00.351Z,99676.00
2022-08-17T16:18:03.309Z,99680.69
2022-08-17T16:21:29.684Z,99678.59
2022-08-17T16:24:36.952Z,99678.19
2022-08-17T16:27:39.743Z,99674.78
2022-08-17T16:30:43.451Z,99672.53
2022-08-17T16:34:15.764Z,99673.72
2022-08-17T16:37:11.346Z,99672.47
2022-08-17T16:40:17.111Z,99671.41
2022-08-17T16:43:20.208Z,99680.81
2022-08-17T16:46:22.734Z,99675.50
2022-08-17T16:49:36.605Z,99668.28
2022-08-17T16:52:41.261Z,99677.38
2022-08-17T16:55:45.662Z,99674.78
2022-08-17T16:58:48.203Z,99679.63
2022-08-17T17:01:53.769Z,99679.81
2022-08-17T17:05:01.131Z,99682.09
2022-08-17T17:08:25.711Z,99686.16
2022-08-17T17:11:42.514Z,99680.56
2022-08-17T17:14:47.067Z,99686.53
2022-08-17T17:17:52.354Z,99686.34
2022-08-17T17:20:57.346Z,99690.38
2022-08-17T17:24:06.523Z,99683.78
2022-08-17T17:27:09.218Z,99691.00
2022-08-17T17:30:24.260Z,99689.06
2022-08-17T17:33:36.993Z,99694.16
2022-08-17T17:36:45.333Z,99691.66
2022-08-17T17:39:52.589Z,99702.47
2022-08-17T17:43:14.357Z,99706.41
2022-08-17T17:46:29.272Z,99712.56
2022-08-17T17:50:00.326Z,99713.38
2022-08-17T17:53:11.481Z,99716.59
2022-08-17T17:56:43.019Z,99717.16
2022-08-17T18:00:03.473Z,99712.16
2022-08-17T18:03:39.175Z,99719.87
2022-08-17T18:06:56.089Z,99716.47
2022-08-17T18:10:30.181Z,99717.59
2022-08-17T18:14:03.624Z,99718.28
2022-08-17T18:17:07.294Z,99724.41
2022-08-17T18:20:10.323Z,99727.53
2022-08-17T18:23:13.108Z,99724.59
2022-08-17T18:26:40.119Z,99726.78
2022-08-17T18:29:48.064Z,99739.19
2022-08-17T18:32:50.933Z,99735.63
2022-08-17T18:35:58.882Z,99738.75
2022-08-17T18:39:09.836Z,99747.38
2022-08-17T18:42:26.363Z,99748.44
2022-08-17T18:45:41.051Z,99752.81
2022-08-17T18:49:07.640Z,99756.84
2022-08-17T18:52:23.008Z,99750.28
2022-08-17T18:55:29.307Z,99750.50
2022-08-17T18:58:32.206Z,99759.06
2022-08-17T19:01:53.242Z,99759.78
2022-08-17T19:05:25.005Z,99764.53
2022-08-17T19:08:30.556Z,99765.22
2022-08-17T19:11:35.193Z,99760.41
2022-08-17T19:14:38.338Z,99755.34
2022-08-17T19:18:15.823Z,99767.97
2022-08-17T19:21:23.942Z,99765.56
2022-08-17T19:24:31.960Z,99771.09
2022-08-17T19:28:03.550Z,99771.19
2022-08-17T19:31:23.409Z,99772.03
2022-08-17T19:34:34.157Z,99784.38
2022-08-17T19:37:59.571Z,99780.37
2022-08-17T19:41:11.337Z,99780.94
2022-08-17T19:44:38.468Z,99782.88
2022-08-17T19:47:55.071Z,99780.19
2022-08-17T19:51:06.549Z,99780.53
2022-08-17T19:54:15.920Z,99790.38
2022-08-17T19:57:35.664Z,99782.28
2022-08-17T20:00:46.908Z,99781.50
2022-08-17T20:04:01.231Z,99778.25
2022-08-17T20:07:13.445Z,99777.22
2022-08-17T20:10:47.257Z,99776.47
2022-08-17T20:14:06.869Z,99781.09
2022-08-17T20:17:12.839Z,99782.47
2022-08-17T20:20:47.668Z,99784.69
2022-08-17T20:24:21.454Z,99772.50
2022-08-17T20:27:31.576Z,99780.91
2022-08-17T20:30:41.324Z,99778.22
2022-08-17T20:33:43.844Z,99782.84
2022-08-17T20:37:04.953Z,99777.97
2022-08-17T20:40:17.703Z,99772.56
2022-08-17T20:43:29.754Z,99762.00
2022-08-17T20:46:38.370Z,99778.81
2022-08-17T20:49:44.633Z,99776.62
2022-08-17T20:52:53.785Z,99770.69
2022-08-17T20:55:57.052Z,99772.84
2022-08-17T20:59:01.833Z,99778.00
2022-08-17T21:02:18.202Z,99768.78
2022-08-17T21:05:49.720Z,99767.13
2022-08-17T21:09:12.515Z,99772.56
2022-08-17T21:12:42.534Z,99779.59
2022-08-17T21:16:06.346Z,99776.91
2022-08-17T21:19:31.082Z,99771.75
2022-08-17T21:22:43.180Z,99777.44
2022-08-17T21:26:01.567Z,99778.78
2022-08-17T21:29:17.878Z,99787.47
2022-08-17T21:32:37.005Z,99794.78
2022-08-17T21:36:15.652Z,99787.47
2022-08-17T21:39:31.455Z,99792.38
2022-08-17T21:42:39.458Z,99802.37
2022-08-17T21:45:43.530Z,99802.09
2022-08-17T21:48:48.267Z,99802.63
2022-08-17T21:51:54.663Z,99804.50
2022-08-17T21:55:02.387Z,99806.41
2022-08-17T21:58:17.791Z,99806.12
2022-08-17T22:01:30.344Z,99805.00
2022-08-17T22:04:42.725Z,99810.16
2022-08-17T22:07:50.624Z,99815.03
2022-08-17T22:11:01.611Z,99821.94
2022-08-17T22:14:16.782Z,99821.66
2022-08-17T22:17:22.425Z,99828.41
2022-08-17T22:20:24.951Z,99829.19
2022-08-17T22:23:59.035Z,99823.50
2022-08-17T22:27:11.605Z,99831.59
2022-08-17T22:30:27.388Z,99831.84
2022-08-17T22:33:33.317Z,99824.53
2022-08-17T22:36:39.046Z,99837.78
2022-08-17T22:39:41.705Z,99835.06
2022-08-17T22:42:49.282Z,99844.75
2022-08-17T22:45:58.667Z,99850.44
2022-08-17T22:49:01.503Z,99861.72
2022-08-17T22:53:00.598Z,99875.69
2022-08-17T22:56:23.047Z,99880.09
2022-08-17T22:59:54.598Z,99870.06
2022-08-17T23:03:12.312Z,99882.19
2022-08-17T23:06:14.896Z,99878.37
2022-08-17T23:09:17.710Z,99892.13
2022-08-17T23:12:26.447Z,99885.31
2022-08-17T23:15:33.252Z,99906.12
2022-08-17T23:18:36.393Z,99899.50
2022-08-17T23:21:39.488Z,99909.94
2022-08-17T23:24:45.721Z,99909.09
2022-08-17T23:27:48.808Z,99910.72
2022-08-17T23:30:51.388Z,99903.47
2022-08-17T23:33:54.864Z,99906.75
2022-08-17T23:36:57.842Z,99900.28
2022-08-17T23:40:00.754Z,99885.56
2022-08-17T23:43:17.365Z,99894.19
2022-08-17T23:46:27.708Z,99894.37
2022-08-17T23:49:31.417Z,99882.97
2022-08-17T23:52:38.534Z,99891.47
2022-08-17T23:55:41.012Z,99887.47
2022-08-17T23:58:44.847Z,99884.44
